Skull Valley, Arizona
Current Conditions -  °F | °C
As of 8:53 PM on Wednesday 26 Nov 2014 (Local Time) from KPRC Reporting Station
Clear Clear  
Wind Chill: 38°   Ceiling: Unl
Heat Index: 42°   Visibility: 10mi
Dew Point: 20°   Wind: 6mph
Humidity: 41%   Direction: 170°S
Pressure: 30.38"   Gusts: NA
Location:  34.51°N, 112.69°W
Report Text: KPRC 270353Z 17005KT 10SM CLR 06/M07 A3038 RMK AO2 SLP262 T00561067
Loading
Personal Weather Stations






























Interactive Weather Map New forecast layout! Learn more

10-Day Weather Forecast

Advertisements
Track Severe Weather on mobile